Orbital elements of FENGYUN 1C DEB
| Launched | 9 May 1999 |
| Flight ended | – |
| Launch site | Taiyuan Space Center, PRC |
| Owner | People's Republic of China |
| NORAD ID | 31329 |
| Date fetched |
Epoch osculation |
Inc. [°] |
Ecc. | RA asc node [hr] |
Arg Peri. [°] |
Mean anom [°] |
Mean motion [rev/day] |
Abs. mag |
| Date fetched |
Epoch osculation |
Inc. [°] |
Ecc. | RA asc node [hr] |
Arg Peri. [°] |
Mean anom [°] |
Mean motion [rev/day] |
Abs. mag |
| 2026 May 09 17:57 | 2026 May 05 06:15:19 | 98.9055 | 0.00521 | 8.6033 | 3.9343 | 356.2260 | 14.70069 | – |
| 2026 May 08 17:57 | 2026 May 05 06:15:19 | 98.9055 | 0.00521 | 8.6033 | 3.9343 | 356.2260 | 14.70069 | – |
| 2026 May 07 17:58 | 2026 May 05 06:15:19 | 98.9055 | 0.00521 | 8.6033 | 3.9343 | 356.2260 | 14.70069 | – |
| 2026 May 06 17:57 | 2026 May 05 06:15:19 | 98.9055 | 0.00521 | 8.6033 | 3.9343 | 356.2260 | 14.70069 | – |
| 2026 May 05 17:57 | 2026 May 05 06:15:19 | 98.9055 | 0.00521 | 8.6033 | 3.9343 | 356.2260 | 14.70069 | – |
| 2026 May 04 17:57 | 2026 Apr 29 06:29:58 | 98.9054 | 0.00529 | 8.1676 | 22.3651 | 356.2260 | 14.70069 | – |
| 2026 May 03 17:57 | 2026 Apr 29 06:29:58 | 98.9054 | 0.00529 | 8.1676 | 22.3651 | 356.2260 | 14.70069 | – |
| 2026 May 02 17:57 | 2026 Apr 29 06:29:58 | 98.9054 | 0.00529 | 8.1676 | 22.3651 | 356.2260 | 14.70069 | – |
| 2026 May 01 17:56 | 2026 Apr 29 06:29:58 | 98.9054 | 0.00529 | 8.1676 | 22.3651 | 356.2260 | 14.70069 | – |
| 2026 Apr 30 17:56 | 2026 Apr 29 06:29:58 | 98.9054 | 0.00529 | 8.1676 | 22.3651 | 356.2260 | 14.70069 | – |
| 2026 Apr 29 17:57 | 2026 Apr 24 05:36:20 | 98.9066 | 0.00535 | 7.8013 | 37.7694 | 356.2260 | 14.70069 | – |
| 2026 Apr 28 17:56 | 2026 Apr 24 05:36:20 | 98.9066 | 0.00535 | 7.8013 | 37.7694 | 356.2260 | 14.70069 | – |
| 2026 Apr 27 17:58 | 2026 Apr 24 05:36:20 | 98.9066 | 0.00535 | 7.8013 | 37.7694 | 356.2260 | 14.70069 | – |
| 2026 Apr 26 17:58 | 2026 Apr 24 05:36:20 | 98.9066 | 0.00535 | 7.8013 | 37.7694 | 356.2260 | 14.70069 | – |
| 2026 Apr 25 17:58 | 2026 Apr 24 05:36:20 | 98.9066 | 0.00535 | 7.8013 | 37.7694 | 356.2260 | 14.70069 | – |
| 2026 Apr 24 17:59 | 2026 Apr 24 05:36:20 | 98.9066 | 0.00535 | 7.8013 | 37.7694 | 356.2260 | 14.70069 | – |
| 2026 Apr 23 17:57 | 2026 Apr 19 04:42:19 | 98.9069 | 0.00539 | 7.4350 | 53.1467 | 356.2260 | 14.70069 | – |
| 2026 Apr 22 17:57 | 2026 Apr 19 04:42:19 | 98.9069 | 0.00539 | 7.4350 | 53.1467 | 356.2260 | 14.70069 | – |
| 2026 Apr 21 17:57 | 2026 Apr 19 04:42:19 | 98.9069 | 0.00539 | 7.4350 | 53.1467 | 356.2260 | 14.70069 | – |
| 2026 Apr 20 17:57 | 2026 Apr 19 04:42:19 | 98.9069 | 0.00539 | 7.4350 | 53.1467 | 356.2260 | 14.70069 | – |
| 2026 Apr 19 17:58 | 2026 Apr 19 04:42:19 | 98.9069 | 0.00539 | 7.4350 | 53.1467 | 356.2260 | 14.70069 | – |
| 2026 Apr 18 17:56 | 2026 Apr 12 04:25:02 | 98.9071 | 0.00542 | 6.9251 | 74.1363 | 356.2260 | 14.70069 | – |
| 2026 Apr 16 17:57 | 2026 Apr 12 04:25:02 | 98.9071 | 0.00542 | 6.9251 | 74.1363 | 356.2260 | 14.70069 | – |
| 2026 Apr 14 17:57 | 2026 Apr 12 04:25:02 | 98.9071 | 0.00542 | 6.9251 | 74.1363 | 356.2260 | 14.70069 | – |
| 2026 Apr 13 17:57 | 2026 Apr 12 04:25:02 | 98.9071 | 0.00542 | 6.9251 | 74.1363 | 356.2260 | 14.70069 | – |
| 2026 Apr 12 17:57 | 2026 Apr 06 17:42:08 | 98.9077 | 0.00543 | 6.5292 | 90.4754 | 356.2260 | 14.70069 | – |